createdAt,value
2018-06-16T00:00:58.040Z,58.90
2018-06-16T00:03:27.656Z,57.00
2018-06-16T00:05:57.301Z,58.10
2018-06-16T00:08:27.001Z,59.20
2018-06-16T00:10:56.826Z,56.70
2018-06-16T00:13:26.697Z,57.30
2018-06-16T00:15:56.345Z,55.40
2018-06-16T00:18:26.105Z,58.40
2018-06-16T00:20:55.861Z,57.10
2018-06-16T00:23:25.724Z,58.10
2018-06-16T00:25:55.860Z,56.30
2018-06-16T00:28:25.453Z,55.50
2018-06-16T00:30:55.117Z,57.20
2018-06-16T00:33:24.820Z,55.70
2018-06-16T00:35:54.657Z,56.20
2018-06-16T00:38:24.397Z,58.20
2018-06-16T00:40:54.161Z,57.70
2018-06-16T00:43:23.868Z,55.60
2018-06-16T00:45:53.642Z,56.30
2018-06-16T00:48:23.376Z,56.50
2018-06-16T00:50:53.148Z,57.70
2018-06-16T00:53:22.800Z,55.50
2018-06-16T00:55:52.496Z,55.60
2018-06-16T00:58:22.179Z,55.50
2018-06-16T01:00:51.808Z,55.50
2018-06-16T01:03:21.510Z,55.80
2018-06-16T01:05:51.255Z,56.20
2018-06-16T01:08:20.933Z,56.50
2018-06-16T01:10:50.677Z,57.10
2018-06-16T01:15:49.235Z,57.20
2018-06-16T01:18:18.923Z,56.60
2018-06-16T01:20:48.585Z,57.00
2018-06-16T01:23:18.294Z,57.80
2018-06-16T01:25:48.059Z,56.30
2018-06-16T01:28:17.930Z,57.90
2018-06-16T01:30:47.579Z,58.60
2018-06-16T01:33:17.316Z,58.20
2018-06-16T01:35:47.560Z,58.90
2018-06-16T01:38:17.385Z,57.80
2018-06-16T01:40:47.136Z,58.00
2018-06-16T01:43:16.792Z,57.90
2018-06-16T01:45:46.556Z,57.90
2018-06-16T01:48:16.208Z,57.90
2018-06-16T01:50:45.800Z,57.40
2018-06-16T01:53:15.481Z,59.00
2018-06-16T01:55:45.140Z,59.40
2018-06-16T01:58:14.849Z,58.30
2018-06-16T02:00:44.457Z,60.00
2018-06-16T02:03:14.173Z,57.80
2018-06-16T02:05:44.028Z,58.50
2018-06-16T02:10:43.169Z,60.30
2018-06-16T02:13:12.899Z,58.40
2018-06-16T02:15:42.824Z,57.70
2018-06-16T02:18:12.528Z,59.10
2018-06-16T02:20:42.246Z,58.50
2018-06-16T02:23:12.002Z,58.70
2018-06-16T02:25:41.736Z,58.90
2018-06-16T02:28:11.423Z,59.00
2018-06-16T02:30:41.072Z,57.80
2018-06-16T02:33:10.893Z,59.80
2018-06-16T02:35:40.652Z,59.70
2018-06-16T02:38:10.272Z,59.00
2018-06-16T02:40:41.753Z,59.10
2018-06-16T02:43:13.468Z,59.10
2018-06-16T02:45:46.085Z,57.90
2018-06-16T02:48:15.697Z,57.80
2018-06-16T02:50:45.365Z,59.10
2018-06-16T02:53:15.014Z,58.50
2018-06-16T02:55:44.821Z,59.10
2018-06-16T02:58:14.589Z,58.70
2018-06-16T03:00:44.348Z,58.90
2018-06-16T03:03:14.215Z,58.20
2018-06-16T03:05:43.944Z,59.00
2018-06-16T03:08:13.638Z,58.50
2018-06-16T03:10:43.403Z,59.20
2018-06-16T03:13:13.182Z,58.40
2018-06-16T03:15:42.868Z,58.50
2018-06-16T03:18:12.559Z,58.80
2018-06-16T03:20:42.185Z,58.90
2018-06-16T03:23:11.850Z,58.10
2018-06-16T03:25:41.689Z,57.80
2018-06-16T03:28:11.361Z,58.30
2018-06-16T03:30:41.062Z,58.50
2018-06-16T03:33:10.681Z,58.70
2018-06-16T03:35:40.285Z,58.40
2018-06-16T03:38:09.976Z,60.40
2018-06-16T03:40:39.662Z,57.90
2018-06-16T03:43:09.339Z,58.90
2018-06-16T03:45:39.130Z,58.70
2018-06-16T03:48:08.941Z,57.40
2018-06-16T03:50:38.626Z,58.10
2018-06-16T03:53:08.318Z,58.70
2018-06-16T03:55:37.972Z,59.10
2018-06-16T03:58:07.654Z,59.90
2018-06-16T04:00:37.336Z,58.70
2018-06-16T04:03:07.272Z,59.50
2018-06-16T04:05:36.962Z,58.10
2018-06-16T04:08:06.709Z,59.90
2018-06-16T04:10:36.380Z,59.50
2018-06-16T04:13:06.141Z,59.20
2018-06-16T04:15:35.826Z,60.30
2018-06-16T04:18:05.667Z,59.60
2018-06-16T04:20:35.383Z,60.60
2018-06-16T04:23:05.143Z,59.60
2018-06-16T04:25:34.900Z,59.20
2018-06-16T04:28:04.596Z,59.00
2018-06-16T04:30:34.319Z,59.20
2018-06-16T04:33:04.029Z,60.10
2018-06-16T04:35:33.833Z,60.60
2018-06-16T04:38:03.638Z,60.10
2018-06-16T04:40:33.412Z,59.40
2018-06-16T04:43:03.172Z,58.90
2018-06-16T04:45:32.957Z,58.40
2018-06-16T04:48:02.689Z,58.70
2018-06-16T04:50:32.374Z,59.10
2018-06-16T04:53:02.004Z,59.00
2018-06-16T04:55:31.725Z,59.00
2018-06-16T04:58:01.479Z,59.30
2018-06-16T05:00:31.240Z,57.40
2018-06-16T05:03:01.111Z,59.40
2018-06-16T05:05:30.762Z,61.10
2018-06-16T05:08:00.469Z,59.70
2018-06-16T05:10:30.182Z,58.40
2018-06-16T05:12:59.868Z,59.50
2018-06-16T05:15:29.551Z,60.10
2018-06-16T05:17:59.216Z,59.50
2018-06-16T05:20:28.884Z,58.50
2018-06-16T05:22:58.681Z,59.50
2018-06-16T05:25:28.317Z,57.00
2018-06-16T05:27:58.016Z,59.80
2018-06-16T05:30:27.758Z,58.80
2018-06-16T05:32:57.449Z,58.10
2018-06-16T05:35:27.080Z,57.60
2018-06-16T05:37:56.777Z,57.50
2018-06-16T05:40:26.444Z,57.20
2018-06-16T05:42:56.098Z,58.80
2018-06-16T05:45:25.813Z,56.50
2018-06-16T05:47:55.400Z,56.90
2018-06-16T05:50:25.027Z,56.30
2018-06-16T05:52:54.742Z,56.30
2018-06-16T05:55:24.500Z,55.50
2018-06-16T05:57:54.241Z,55.40
2018-06-16T06:00:23.922Z,57.60
2018-06-16T06:02:53.568Z,57.10
2018-06-16T06:05:23.265Z,56.80
2018-06-16T06:07:52.945Z,55.20
2018-06-16T06:10:22.900Z,54.70
2018-06-16T06:12:52.665Z,57.40
2018-06-16T06:17:51.601Z,57.80
2018-06-16T06:20:21.339Z,57.60
2018-06-16T06:22:51.120Z,57.60
2018-06-16T06:25:20.915Z,54.50
2018-06-16T06:27:50.566Z,57.00
2018-06-16T06:30:20.247Z,55.60
2018-06-16T06:32:49.983Z,54.50
2018-06-16T06:35:19.636Z,54.00
2018-06-16T06:37:49.304Z,52.90
2018-06-16T06:40:18.893Z,51.80
2018-06-16T06:42:48.580Z,53.10
2018-06-16T06:45:18.226Z,52.40
2018-06-16T06:47:47.909Z,50.10
2018-06-16T06:50:17.544Z,99.90
2018-06-16T06:52:47.225Z,1.00
2018-06-16T06:55:17.033Z,23.30
2018-06-16T06:57:47.607Z,33.40
2018-06-16T07:00:17.318Z,34.80
2018-06-16T07:02:46.997Z,37.90
2018-06-16T07:05:16.760Z,39.10
2018-06-16T07:07:46.489Z,38.00
2018-06-16T07:10:16.205Z,38.00
2018-06-16T07:15:14.958Z,38.20
2018-06-16T07:17:44.681Z,38.40
2018-06-16T07:20:14.374Z,40.10
2018-06-16T07:22:45.192Z,39.00
2018-06-16T07:25:14.794Z,36.50
2018-06-16T07:27:44.402Z,33.60
2018-06-16T07:30:14.041Z,33.80
2018-06-16T07:32:43.783Z,32.20
2018-06-16T07:35:13.653Z,31.70
2018-06-16T07:37:43.367Z,29.40
2018-06-16T07:40:13.128Z,29.00
2018-06-16T07:45:12.297Z,28.90
2018-06-16T07:47:42.057Z,28.80
2018-06-16T07:50:12.061Z,29.20
2018-06-16T07:55:10.721Z,29.20
2018-06-16T08:00:09.707Z,28.60
2018-06-16T08:02:39.512Z,29.10
2018-06-16T08:05:10.561Z,28.00
2018-06-16T08:07:40.241Z,28.70
2018-06-16T08:10:10.009Z,28.80
2018-06-16T08:12:39.689Z,29.10
2018-06-16T08:15:09.324Z,28.50
2018-06-16T08:17:39.025Z,27.70
2018-06-16T08:20:08.740Z,27.70
2018-06-16T08:22:38.444Z,28.10
2018-06-16T08:25:08.141Z,28.20
2018-06-16T08:27:37.841Z,28.30
2018-06-16T08:30:07.472Z,26.10
2018-06-16T08:32:36.860Z,27.00
2018-06-16T08:35:06.499Z,27.80
2018-06-16T08:37:35.895Z,27.10
2018-06-16T08:40:05.453Z,25.00
2018-06-16T08:42:34.826Z,27.30
2018-06-16T08:45:04.282Z,27.20
2018-06-16T08:47:33.668Z,27.50
2018-06-16T08:50:03.084Z,26.90
2018-06-16T08:52:32.465Z,26.90
2018-06-16T08:55:01.854Z,26.00
2018-06-16T08:57:31.240Z,26.60
2018-06-16T09:00:00.640Z,27.10
2018-06-16T09:02:30.028Z,25.60
2018-06-16T09:04:59.621Z,27.40
2018-06-16T09:07:29.084Z,27.00
2018-06-16T09:09:58.909Z,26.70
2018-06-16T09:12:28.333Z,26.40
2018-06-16T09:14:57.761Z,26.80
2018-06-16T09:17:27.164Z,26.70
2018-06-16T09:19:56.574Z,26.80
2018-06-16T09:22:26.927Z,26.60
2018-06-16T09:24:56.348Z,26.30
2018-06-16T09:27:25.813Z,26.30
2018-06-16T09:29:55.248Z,26.30
2018-06-16T09:32:24.656Z,26.00
2018-06-16T09:34:54.094Z,27.90
2018-06-16T09:37:23.527Z,28.80
2018-06-16T09:39:52.918Z,29.00
2018-06-16T09:42:22.399Z,28.40
2018-06-16T09:44:51.825Z,29.50
2018-06-16T09:47:21.244Z,28.70
2018-06-16T09:49:50.643Z,28.90
2018-06-16T09:52:20.067Z,29.20
2018-06-16T09:54:49.461Z,29.90
2018-06-16T09:57:18.845Z,31.70
2018-06-16T09:59:48.213Z,31.30
2018-06-16T10:02:18.803Z,30.20
2018-06-16T10:04:48.276Z,30.30
2018-06-16T10:07:18.958Z,30.60
2018-06-16T10:09:49.326Z,31.20
2018-06-16T10:12:19.765Z,33.50
2018-06-16T10:14:49.696Z,33.40
2018-06-16T10:17:19.799Z,32.20
2018-06-16T10:19:50.134Z,31.50
2018-06-16T10:22:20.248Z,33.30
2018-06-16T10:24:51.033Z,33.10
2018-06-16T10:27:22.070Z,34.70
2018-06-16T10:29:52.297Z,32.70
2018-06-16T10:32:22.321Z,34.70
2018-06-16T10:34:52.935Z,35.50
2018-06-16T10:37:23.466Z,34.60
2018-06-16T10:39:52.989Z,36.20
2018-06-16T10:42:22.687Z,35.80
2018-06-16T10:44:52.589Z,38.60
2018-06-16T10:47:22.061Z,38.70
2018-06-16T10:49:53.098Z,37.90
2018-06-16T10:52:24.100Z,39.50
2018-06-16T10:54:54.013Z,38.70
2018-06-16T10:57:24.531Z,40.90
2018-06-16T11:02:24.928Z,43.10
2018-06-16T11:04:56.813Z,41.60
2018-06-16T11:07:28.355Z,43.40
2018-06-16T11:09:58.385Z,43.70
2018-06-16T11:12:28.725Z,43.50
2018-06-16T11:14:58.578Z,41.10
2018-06-16T11:17:28.892Z,42.30
2018-06-16T11:19:58.328Z,44.70
2018-06-16T11:22:28.582Z,43.30
2018-06-16T11:25:01.647Z,43.00
2018-06-16T11:27:33.517Z,43.40
2018-06-16T11:30:06.212Z,46.40
2018-06-16T11:32:36.410Z,43.20
2018-06-16T11:35:05.780Z,46.90
2018-06-16T11:37:35.157Z,45.90
2018-06-16T11:40:04.697Z,46.80
2018-06-16T11:42:34.112Z,46.30
2018-06-16T11:45:03.508Z,44.80
2018-06-16T11:47:32.871Z,44.70
2018-06-16T11:50:02.254Z,45.90
2018-06-16T11:52:31.650Z,47.60
2018-06-16T11:55:01.025Z,49.00
2018-06-16T11:57:30.404Z,47.10
2018-06-16T11:59:59.775Z,46.90
2018-06-16T12:02:29.165Z,47.70
2018-06-16T12:04:58.545Z,49.30
2018-06-16T12:07:27.993Z,48.40
2018-06-16T12:09:57.455Z,48.70
2018-06-16T12:12:26.835Z,50.30
2018-06-16T12:14:56.236Z,48.30
2018-06-16T12:17:25.625Z,48.40
2018-06-16T12:19:55.074Z,50.00
2018-06-16T12:22:24.448Z,50.40
2018-06-16T12:24:53.897Z,48.70
2018-06-16T12:27:23.604Z,47.70
2018-06-16T12:29:53.001Z,49.30
2018-06-16T12:32:22.431Z,49.00
2018-06-16T12:34:51.803Z,49.60
2018-06-16T12:37:21.201Z,50.50
2018-06-16T12:39:50.598Z,49.70
2018-06-16T12:42:19.981Z,48.50
2018-06-16T12:44:49.365Z,48.50
2018-06-16T12:47:18.754Z,48.30
2018-06-16T12:49:48.121Z,49.40
2018-06-16T12:52:17.508Z,50.10
2018-06-16T12:54:47.167Z,50.60
2018-06-16T12:57:17.179Z,50.00
2018-06-16T12:59:46.553Z,51.10
2018-06-16T13:02:16.910Z,49.10
2018-06-16T13:04:46.292Z,48.70
2018-06-16T13:07:15.709Z,49.00
2018-06-16T13:09:45.101Z,52.00
2018-06-16T13:12:14.465Z,50.00
2018-06-16T13:14:43.845Z,51.40
2018-06-16T13:17:13.253Z,51.70
2018-06-16T13:19:42.641Z,49.50
2018-06-16T13:22:12.029Z,50.90
2018-06-16T13:24:41.420Z,52.00
2018-06-16T13:27:10.819Z,53.00
2018-06-16T13:29:40.213Z,52.30
2018-06-16T13:32:09.624Z,52.90
2018-06-16T13:34:38.996Z,53.10
2018-06-16T13:37:08.377Z,51.30
2018-06-16T13:39:38.753Z,53.00
2018-06-16T13:42:09.132Z,51.70
2018-06-16T13:44:38.524Z,52.20
2018-06-16T13:47:08.901Z,51.00
2018-06-16T13:49:38.343Z,50.90
2018-06-16T13:52:07.729Z,51.30
2018-06-16T13:54:37.116Z,51.50
2018-06-16T13:57:06.514Z,50.70
2018-06-16T13:59:35.916Z,50.40
2018-06-16T14:02:05.349Z,51.00
2018-06-16T14:04:34.722Z,51.40
2018-06-16T14:07:04.145Z,50.80
2018-06-16T14:09:33.530Z,51.00
2018-06-16T14:12:02.946Z,51.80
2018-06-16T14:14:32.367Z,52.30
2018-06-16T14:17:01.741Z,50.60
2018-06-16T14:19:31.121Z,51.50
2018-06-16T14:22:00.526Z,52.00
2018-06-16T14:24:30.698Z,52.20
2018-06-16T14:27:00.093Z,50.70
2018-06-16T14:29:29.489Z,51.30
2018-06-16T14:31:58.871Z,51.20
2018-06-16T14:34:28.290Z,52.70
2018-06-16T14:36:57.696Z,52.00
2018-06-16T14:39:27.920Z,50.90
2018-06-16T14:41:57.332Z,51.60
2018-06-16T14:44:26.765Z,52.20
2018-06-16T14:46:56.175Z,51.80
2018-06-16T14:49:25.617Z,52.00
2018-06-16T14:51:55.003Z,51.40
2018-06-16T14:54:24.446Z,52.30
2018-06-16T14:56:53.825Z,51.90
2018-06-16T14:59:23.224Z,52.40
2018-06-16T15:01:52.627Z,51.70
2018-06-16T15:04:22.054Z,51.80
2018-06-16T15:06:51.457Z,51.90
2018-06-16T15:09:20.852Z,51.70
2018-06-16T15:11:50.249Z,51.80
2018-06-16T15:14:19.638Z,52.40
2018-06-16T15:16:49.051Z,52.60
2018-06-16T15:19:18.453Z,53.10
2018-06-16T15:21:47.837Z,52.30
2018-06-16T15:24:17.205Z,51.80
2018-06-16T15:26:46.585Z,51.80
2018-06-16T15:29:15.999Z,51.70
2018-06-16T15:31:45.370Z,52.40
2018-06-16T15:34:15.323Z,52.40
2018-06-16T15:36:44.698Z,52.20
2018-06-16T15:39:14.086Z,52.20
2018-06-16T15:41:43.504Z,52.40
2018-06-16T15:44:12.908Z,52.40
2018-06-16T15:46:42.368Z,52.60
2018-06-16T15:49:11.774Z,51.70
2018-06-16T15:51:41.163Z,52.00
2018-06-16T15:54:10.556Z,52.20
2018-06-16T15:56:40.889Z,52.20
2018-06-16T15:59:10.292Z,51.60
2018-06-16T16:01:40.497Z,51.60
2018-06-16T16:04:09.877Z,51.80
2018-06-16T16:06:40.189Z,51.60
2018-06-16T16:09:09.561Z,51.60
2018-06-16T16:11:39.061Z,51.10
2018-06-16T16:14:08.466Z,52.60
2018-06-16T16:16:37.886Z,51.50
2018-06-16T16:19:07.896Z,51.40
2018-06-16T16:21:37.322Z,51.20
2018-06-16T16:24:07.628Z,51.40
2018-06-16T16:26:36.997Z,51.40
2018-06-16T16:29:06.453Z,51.40
2018-06-16T16:31:35.820Z,51.30
2018-06-16T16:34:05.430Z,50.90
2018-06-16T16:36:34.877Z,51.30
2018-06-16T16:39:06.762Z,51.20
2018-06-16T16:41:36.167Z,51.20
2018-06-16T16:44:05.622Z,51.20
2018-06-16T16:46:36.208Z,52.30
2018-06-16T16:49:06.436Z,51.80
2018-06-16T16:51:35.949Z,51.10
2018-06-16T16:54:06.067Z,51.90
2018-06-16T16:56:36.596Z,51.10
2018-06-16T16:59:06.856Z,52.20
2018-06-16T17:01:36.766Z,51.00
2018-06-16T17:04:07.788Z,51.00
2018-06-16T17:06:41.852Z,51.00
2018-06-16T17:09:13.184Z,50.90
2018-06-16T17:11:43.390Z,50.90
2018-06-16T17:14:13.579Z,51.50
2018-06-16T17:16:43.706Z,51.10
2018-06-16T17:19:13.605Z,51.40
2018-06-16T17:21:44.019Z,51.80
2018-06-16T17:24:13.400Z,52.00
2018-06-16T17:26:42.774Z,51.60
2018-06-16T17:29:12.450Z,51.20
2018-06-16T17:31:42.712Z,50.80
2018-06-16T17:34:13.866Z,51.30
2018-06-16T17:36:43.770Z,51.10
2018-06-16T17:39:15.128Z,50.70
2018-06-16T17:41:45.337Z,51.60
2018-06-16T17:44:17.997Z,51.30
2018-06-16T17:46:50.684Z,51.40
2018-06-16T17:49:20.833Z,52.30
2018-06-16T17:51:53.307Z,52.40
2018-06-16T17:54:24.370Z,51.80
2018-06-16T17:56:54.626Z,51.70
2018-06-16T17:59:24.725Z,52.60
2018-06-16T18:01:54.564Z,51.90
2018-06-16T18:04:25.498Z,52.10
2018-06-16T18:06:55.681Z,52.10
2018-06-16T18:09:26.342Z,52.20
2018-06-16T18:11:57.006Z,52.00
2018-06-16T18:14:28.505Z,52.30
2018-06-16T18:16:57.901Z,52.30
2018-06-16T18:19:27.277Z,53.00
2018-06-16T18:21:56.628Z,51.70
2018-06-16T18:24:26.025Z,52.60
2018-06-16T18:26:55.413Z,51.90
2018-06-16T18:29:24.801Z,52.40
2018-06-16T18:31:54.173Z,52.50
2018-06-16T18:34:23.557Z,52.10
2018-06-16T18:36:53.279Z,52.40
2018-06-16T18:39:22.663Z,53.00
2018-06-16T18:41:52.085Z,52.50
2018-06-16T18:44:21.457Z,51.90
2018-06-16T18:46:50.817Z,52.10
2018-06-16T18:49:20.186Z,52.00
2018-06-16T18:51:49.589Z,52.20
2018-06-16T18:54:21.110Z,51.70
2018-06-16T18:56:50.487Z,51.90
2018-06-16T18:59:19.873Z,52.60
2018-06-16T19:01:49.241Z,52.00
2018-06-16T19:04:18.650Z,52.10
2018-06-16T19:06:48.316Z,53.30
2018-06-16T19:09:17.701Z,51.90
2018-06-16T19:11:48.433Z,52.60
2018-06-16T19:14:18.419Z,52.00
2018-06-16T19:16:48.769Z,52.40
2018-06-16T19:19:18.141Z,52.00
2018-06-16T19:21:47.589Z,53.00
2018-06-16T19:24:17.700Z,53.60
2018-06-16T19:26:47.095Z,52.00
2018-06-16T19:29:17.169Z,52.30
2018-06-16T19:31:47.586Z,51.90
2018-06-16T19:34:17.000Z,52.70
2018-06-16T19:36:46.366Z,52.40
2018-06-16T19:39:15.723Z,52.10
2018-06-16T19:41:45.405Z,52.20
2018-06-16T19:44:14.785Z,53.10
2018-06-16T19:46:44.182Z,52.70
2018-06-16T19:49:13.629Z,52.50
2018-06-16T19:51:43.051Z,52.40
2018-06-16T19:54:12.873Z,52.60
2018-06-16T19:56:42.249Z,53.40
2018-06-16T19:59:11.641Z,54.10
2018-06-16T20:01:41.452Z,53.90
2018-06-16T20:04:10.856Z,54.50
2018-06-16T20:06:40.509Z,53.90
2018-06-16T20:09:09.917Z,54.20
2018-06-16T20:11:39.345Z,54.30
2018-06-16T20:14:09.443Z,53.50
2018-06-16T20:16:40.528Z,53.70
2018-06-16T20:19:10.339Z,53.10
2018-06-16T20:21:40.834Z,53.10
2018-06-16T20:24:10.261Z,53.80
2018-06-16T20:26:40.618Z,53.10
2018-06-16T20:29:11.054Z,53.40
2018-06-16T20:31:42.982Z,53.10
2018-06-16T20:34:15.291Z,53.20
2018-06-16T20:36:45.045Z,53.70
2018-06-16T20:39:16.529Z,53.50
2018-06-16T20:41:47.268Z,53.60
2018-06-16T20:44:17.197Z,55.20
2018-06-16T20:46:49.344Z,54.80
2018-06-16T20:49:18.701Z,54.60
2018-06-16T20:51:48.068Z,54.60
2018-06-16T20:54:17.461Z,55.00
2018-06-16T20:56:48.095Z,55.20
2018-06-16T20:59:17.453Z,54.90
2018-06-16T21:01:46.812Z,54.80
2018-06-16T21:04:16.184Z,55.20
2018-06-16T21:06:46.049Z,55.20
2018-06-16T21:09:15.433Z,55.30
2018-06-16T21:11:44.797Z,55.20
2018-06-16T21:14:15.048Z,56.60
2018-06-16T21:16:45.097Z,55.60
2018-06-16T21:19:14.525Z,55.50
2018-06-16T21:21:46.590Z,55.50
2018-06-16T21:24:15.969Z,55.40
2018-06-16T21:26:47.361Z,56.50
2018-06-16T21:29:16.797Z,56.00
2018-06-16T21:31:48.645Z,56.20
2018-06-16T21:34:18.032Z,56.50
2018-06-16T21:36:49.481Z,55.90
2018-06-16T21:39:18.855Z,55.80
2018-06-16T21:41:50.336Z,56.30
2018-06-16T21:44:21.257Z,56.70
2018-06-16T21:46:50.670Z,56.30
2018-06-16T21:49:20.029Z,56.90
2018-06-16T21:51:49.397Z,56.50
2018-06-16T21:54:18.770Z,56.80
2018-06-16T21:56:48.175Z,56.60
2018-06-16T21:59:17.540Z,56.50
2018-06-16T22:01:46.925Z,56.80
2018-06-16T22:04:16.956Z,56.40
2018-06-16T22:06:46.330Z,57.30
2018-06-16T22:09:15.707Z,56.70
2018-06-16T22:11:45.138Z,57.20
2018-06-16T22:14:14.548Z,57.60
2018-06-16T22:16:44.663Z,57.90
2018-06-16T22:19:14.050Z,58.00
2018-06-16T22:21:43.424Z,58.30
2018-06-16T22:24:12.789Z,58.30
2018-06-16T22:26:42.192Z,58.40
2018-06-16T22:29:11.589Z,58.30
2018-06-16T22:31:40.997Z,57.90
2018-06-16T22:34:10.377Z,58.30
2018-06-16T22:36:39.869Z,59.10
2018-06-16T22:39:12.257Z,59.30
2018-06-16T22:41:42.632Z,59.30
2018-06-16T22:44:12.669Z,59.50
2018-06-16T22:46:42.060Z,59.80
2018-06-16T22:49:11.434Z,59.80
2018-06-16T22:51:40.816Z,59.20
2018-06-16T22:54:10.197Z,59.40
2018-06-16T22:56:39.565Z,59.30
2018-06-16T22:59:08.971Z,59.50
2018-06-16T23:01:38.355Z,58.80
2018-06-16T23:04:07.743Z,59.50
2018-06-16T23:06:37.133Z,60.00
2018-06-16T23:09:09.056Z,59.30
2018-06-16T23:11:38.982Z,60.40
2018-06-16T23:14:08.543Z,60.50
2018-06-16T23:16:38.068Z,59.40
2018-06-16T23:19:08.248Z,60.20
2018-06-16T23:21:38.798Z,60.00
2018-06-16T23:24:08.168Z,60.10
2018-06-16T23:26:37.549Z,59.90
2018-06-16T23:29:06.940Z,60.60
2018-06-16T23:31:36.329Z,60.50
2018-06-16T23:34:05.713Z,59.90
2018-06-16T23:36:38.376Z,59.60
2018-06-16T23:39:11.311Z,59.80
2018-06-16T23:41:44.499Z,60.50
2018-06-16T23:44:15.750Z,60.80
2018-06-16T23:46:46.463Z,61.60
2018-06-16T23:49:15.873Z,59.60
2018-06-16T23:51:45.249Z,60.90
2018-06-16T23:54:14.622Z,60.70
2018-06-16T23:56:44.695Z,61.00
2018-06-16T23:59:14.449Z,60.70
